Airfield :
LOGIN :

Register | Disclaimer

   EN    FR    IT 

 










Legend :    VFR   Marginal VFR   IFR   Intensive IFR   Very Intensive IFR
Visi :
Ceiling :
>= 8 km
>= 3000ft
5 to 8 km
1000 to 3000 ft
1500m to 5 km
500 to 1000 ft
800 to 1500m
200 to 500 ft
< 800m
< 200 ft
Symbols :   Thunderstorms  Fog  Heavy snow  Heavy precipitations  Wind > 20 kt
SIGMETs :     Misc.  Thunderstorms  Icing  Turbulence  Mountain Waves  Volcanic Ashes






- Airport Elevation : 978 ft
- IATA code : LNZ


LOWL - Linz

CURRENT METAR :
  • 250750Z 24004KT 2000 BR FEW001 OVC002 M01/M01 Q1033 NOSIG

EXPIRED METARs :
  • 250720Z 25004KT 1400 BR FEW001 OVC002 M01/M01 Q1032 BECMG 2000 BR
  • 250650Z 24004KT 1400 BR FEW001 OVC002 M01/M01 Q1032 BECMG 2000 BR
  • 250620Z 24004KT 1400 BR FEW001 BKN002 M01/M01 Q1032 TEMPO 0400 FZFG
  • 250550Z 22004KT 1800 BR FEW001 BKN002 M01/M01 Q1032 TEMPO 0400 FZFG
  • 250520Z 21003KT 170V270 1800 1400W R26/P1500D BR FEW001 BKN002 M01/M01 Q1033 TEMPO 0400 FZFG

TAF TAF LOWL
Valid from the 25 at 06:00 until the 26 at 06:00 UTC


250515Z 2506/2606 VRB02KT 2000 BKN005 TX04/2514Z TNM01/2507Z
TEMPO 2506/2508 0600 FZFG BKN002
BECMG 2509/2511 30006KT 5000 BKN008
TEMPO 2512/2518 8000 BKN012
TEMPO 2518/2606 4000 BKN006



MET'MAP, your aeronautical weather chart ! - Copyright ORBIFLY December 2007 - Disclaimer

ORBIFLY MET'MAP TEAM :

Programming & Development : Alexandra Zaïnal
Original concept : Baudouin d'Aumeries
Technical & hardware support : Manuel Goepfert
Assistance : Marc-Olivier Méhu

Contact : metmap@orbifly.com




SOURCES & CREDITS :

   NOAA